createdAt,value
2022-09-21T00:00:27.014Z,100212.47
2022-09-21T00:02:57.230Z,100220.66
2022-09-21T00:05:24.574Z,100221.19
2022-09-21T00:08:11.370Z,100214.84
2022-09-21T00:10:37.967Z,100219.59
2022-09-21T00:13:05.724Z,100219.91
2022-09-21T00:15:32.797Z,100218.47
2022-09-21T00:18:00.289Z,100214.03
2022-09-21T00:20:27.941Z,100223.59
2022-09-21T00:23:31.514Z,100221.47
2022-09-21T00:29:14.796Z,100218.62
2022-09-21T00:31:41.585Z,100215.53
2022-09-21T00:34:08.201Z,100220.81
2022-09-21T00:36:35.298Z,100214.91
2022-09-21T00:39:02.254Z,100222.88
2022-09-21T00:41:31.337Z,100225.62
2022-09-21T00:44:22.369Z,100221.97
2022-09-21T00:46:51.376Z,100223.84
2022-09-21T00:49:18.502Z,100231.22
2022-09-21T00:51:46.776Z,100224.88
2022-09-21T00:54:20.031Z,100230.31
2022-09-21T00:57:08.813Z,100229.56
2022-09-21T00:59:38.348Z,100230.06
2022-09-21T01:02:05.783Z,100235.28
2022-09-21T01:04:32.816Z,100242.69
2022-09-21T01:07:05.648Z,100241.94
2022-09-21T01:09:32.819Z,100240.31
2022-09-21T01:16:30.698Z,100238.13
2022-09-21T01:19:23.665Z,100242.53
2022-09-21T01:22:03.075Z,100241.53
2022-09-21T01:24:42.269Z,100239.56
2022-09-21T01:27:26.998Z,100229.69
2022-09-21T01:30:10.697Z,100240.69
2022-09-21T01:33:14.604Z,100232.97
2022-09-21T01:35:46.902Z,100233.22
2022-09-21T01:38:32.085Z,100240.91
2022-09-21T01:41:03.220Z,100246.91
2022-09-21T01:43:37.704Z,100239.75
2022-09-21T01:46:07.848Z,100237.78
2022-09-21T01:52:26.131Z,100237.88
2022-09-21T01:54:58.115Z,100239.25
2022-09-21T01:57:39.099Z,100244.97
2022-09-21T02:00:07.112Z,100243.91
2022-09-21T02:02:39.872Z,100247.50
2022-09-21T02:05:07.604Z,100245.59
2022-09-21T02:07:53.769Z,100245.88
2022-09-21T02:10:26.523Z,100244.53
2022-09-21T02:13:01.226Z,100248.59
2022-09-21T02:16:10.823Z,100249.16
2022-09-21T02:18:40.824Z,100248.00
2022-09-21T02:21:45.674Z,100249.41
2022-09-21T02:27:36.707Z,100255.66
2022-09-21T02:30:06.156Z,100255.16
2022-09-21T02:33:03.834Z,100253.50
2022-09-21T02:36:02.644Z,100256.22
2022-09-21T02:38:53.153Z,100260.56
2022-09-21T02:41:29.745Z,100261.13
2022-09-21T02:44:18.848Z,100254.50
2022-09-21T02:46:59.253Z,100258.09
2022-09-21T02:49:34.159Z,100261.66
2022-09-21T02:52:07.812Z,100255.34
2022-09-21T02:54:36.117Z,100251.22
2022-09-21T02:57:45.593Z,100256.12
2022-09-21T03:00:37.475Z,100255.03
2022-09-21T03:03:22.109Z,100258.91
2022-09-21T03:05:51.386Z,100257.56
2022-09-21T03:08:18.488Z,100255.09
2022-09-21T03:10:46.219Z,100266.84
2022-09-21T03:13:13.343Z,100260.38
2022-09-21T03:16:04.259Z,100269.59
2022-09-21T03:18:31.456Z,100279.47
2022-09-21T03:20:58.046Z,100280.28
2022-09-21T03:23:25.275Z,100270.44
2022-09-21T03:25:52.577Z,100269.34
2022-09-21T03:28:19.992Z,100275.91
2022-09-21T03:31:14.723Z,100283.00
2022-09-21T03:34:28.832Z,100279.72
2022-09-21T03:36:55.614Z,100281.37
2022-09-21T03:39:22.335Z,100282.25
2022-09-21T03:41:48.884Z,100284.44
2022-09-21T03:44:17.733Z,100279.72
2022-09-21T03:46:44.588Z,100285.19
2022-09-21T03:49:36.044Z,100286.03
2022-09-21T03:52:03.656Z,100293.41
2022-09-21T03:54:30.206Z,100285.97
2022-09-21T03:56:56.763Z,100291.19
2022-09-21T03:59:23.479Z,100293.63
2022-09-21T04:01:50.177Z,100290.06
2022-09-21T04:04:16.971Z,100299.34
2022-09-21T04:10:33.399Z,100300.75
2022-09-21T04:13:01.490Z,100298.88
2022-09-21T04:15:29.341Z,100298.88
2022-09-21T04:17:56.174Z,100293.97
2022-09-21T04:20:23.264Z,100305.44
2022-09-21T04:22:51.768Z,100307.03
2022-09-21T04:25:18.676Z,100304.28
2022-09-21T04:27:45.617Z,100309.44
2022-09-21T04:30:14.260Z,100310.84
2022-09-21T04:32:40.993Z,100306.19
2022-09-21T04:35:08.114Z,100314.97
2022-09-21T04:37:34.864Z,100310.81
2022-09-21T04:40:01.759Z,100318.22
2022-09-21T04:42:28.472Z,100320.41
2022-09-21T04:44:56.169Z,100330.78
2022-09-21T04:47:25.223Z,100317.69
2022-09-21T04:49:52.994Z,100332.44
2022-09-21T04:52:20.013Z,100330.81
2022-09-21T04:54:47.326Z,100337.09
2022-09-21T04:57:15.155Z,100337.38
2022-09-21T04:59:41.742Z,100338.75
2022-09-21T05:02:08.885Z,100348.53
2022-09-21T05:04:35.655Z,100354.53
2022-09-21T05:07:02.241Z,100348.78
2022-09-21T05:10:02.741Z,100346.34
2022-09-21T05:12:30.717Z,100350.72
2022-09-21T05:14:57.294Z,100349.06
2022-09-21T05:17:24.210Z,100351.75
2022-09-21T05:19:51.732Z,100349.53
2022-09-21T05:22:18.404Z,100358.00
2022-09-21T05:25:35.695Z,100353.34
2022-09-21T05:28:37.735Z,100360.66
2022-09-21T05:31:32.541Z,100348.03
2022-09-21T05:34:23.951Z,100352.03
2022-09-21T05:37:02.662Z,100361.94
2022-09-21T05:39:29.714Z,100361.41
2022-09-21T05:41:56.823Z,100363.56
2022-09-21T05:44:23.792Z,100359.63
2022-09-21T05:46:59.212Z,100372.41
2022-09-21T05:49:30.739Z,100366.94
2022-09-21T05:52:25.269Z,100360.03
2022-09-21T05:55:33.612Z,100362.63
2022-09-21T05:58:14.534Z,100360.44
2022-09-21T06:01:18.757Z,100361.44
2022-09-21T06:03:48.599Z,100358.03
2022-09-21T06:06:15.264Z,100365.75
2022-09-21T06:08:41.800Z,100368.41
2022-09-21T06:11:08.434Z,100369.37
2022-09-21T06:13:35.018Z,100369.63
2022-09-21T06:16:05.149Z,100372.84
2022-09-21T06:18:31.749Z,100372.78
2022-09-21T06:20:58.324Z,100371.06
2022-09-21T06:23:24.876Z,100376.19
2022-09-21T06:25:57.601Z,100384.97
2022-09-21T06:28:25.909Z,100392.09
2022-09-21T06:30:54.292Z,100388.22
2022-09-21T06:33:23.541Z,100391.16
2022-09-21T06:35:55.428Z,100391.69
2022-09-21T06:38:22.792Z,100392.47
2022-09-21T06:40:50.468Z,100391.00
2022-09-21T06:43:17.482Z,100387.78
2022-09-21T06:45:44.307Z,100385.44
2022-09-21T06:48:10.864Z,100394.66
2022-09-21T06:50:37.381Z,100399.56
2022-09-21T06:53:04.128Z,100403.47
2022-09-21T06:55:31.680Z,100401.50
2022-09-21T06:58:03.002Z,100408.47
2022-09-21T07:00:30.477Z,100408.66
2022-09-21T07:02:57.110Z,100410.25
2022-09-21T07:05:23.870Z,100403.78
2022-09-21T07:07:53.748Z,100406.25
2022-09-21T07:10:20.879Z,100410.81
2022-09-21T07:12:52.026Z,100412.31
2022-09-21T07:15:21.911Z,100408.97
2022-09-21T07:18:05.526Z,100407.59
2022-09-21T07:20:32.405Z,100409.84
2022-09-21T07:22:58.985Z,100407.94
2022-09-21T07:25:25.625Z,100400.09
2022-09-21T07:27:52.238Z,100405.78
2022-09-21T07:30:18.903Z,100410.22
2022-09-21T07:32:48.238Z,100409.25
2022-09-21T07:35:14.931Z,100413.84
2022-09-21T07:37:41.570Z,100414.38
2022-09-21T07:40:08.672Z,100407.13
2022-09-21T07:42:35.362Z,100401.50
2022-09-21T07:45:24.508Z,100420.19
2022-09-21T07:47:54.209Z,100405.50
2022-09-21T07:50:21.966Z,100415.31
2022-09-21T07:52:48.609Z,100412.44
2022-09-21T07:55:15.954Z,100412.56
2022-09-21T07:58:01.080Z,100412.44
2022-09-21T08:01:17.923Z,100413.75
2022-09-21T08:04:06.128Z,100418.75
2022-09-21T08:06:35.231Z,100409.66
2022-09-21T08:09:03.445Z,100407.03
2022-09-21T08:11:31.507Z,100408.84
2022-09-21T08:14:00.862Z,100407.69
2022-09-21T08:16:30.829Z,100408.50
2022-09-21T08:18:57.532Z,100408.69
2022-09-21T08:21:24.129Z,100424.94
2022-09-21T08:23:50.688Z,100414.84
2022-09-21T08:26:19.679Z,100408.84
2022-09-21T08:28:51.744Z,100418.03
2022-09-21T08:31:20.657Z,100414.72
2022-09-21T08:34:09.677Z,100417.63
2022-09-21T08:37:19.783Z,100419.44
2022-09-21T08:39:46.322Z,100422.63
2022-09-21T08:42:36.590Z,100419.72
2022-09-21T08:45:10.148Z,100413.25
2022-09-21T08:47:46.901Z,100410.94
2022-09-21T08:50:29.022Z,100421.31
2022-09-21T08:53:16.652Z,100420.59
2022-09-21T08:55:43.220Z,100431.00
2022-09-21T08:58:22.864Z,100433.63
2022-09-21T09:01:16.009Z,100427.69
2022-09-21T09:04:07.322Z,100433.25
2022-09-21T09:06:43.239Z,100426.50
2022-09-21T09:13:08.930Z,100414.78
2022-09-21T09:15:50.279Z,100419.69
2022-09-21T09:18:43.519Z,100411.44
2022-09-21T09:21:14.706Z,100420.13
2022-09-21T09:23:46.917Z,100417.88
2022-09-21T09:26:25.399Z,100413.31
2022-09-21T09:28:58.738Z,100404.03
2022-09-21T09:31:34.707Z,100410.09
2022-09-21T09:34:13.263Z,100406.59
2022-09-21T09:36:58.432Z,100412.47
2022-09-21T09:39:28.425Z,100407.63
2022-09-21T09:42:00.780Z,100407.47
2022-09-21T09:44:30.722Z,100404.97
2022-09-21T09:47:28.265Z,100417.81
2022-09-21T09:50:10.655Z,100411.69
2022-09-21T09:52:37.671Z,100419.25
2022-09-21T09:55:41.190Z,100410.16
2022-09-21T09:58:16.056Z,100405.53
2022-09-21T10:00:43.125Z,100410.00
2022-09-21T10:03:18.358Z,100407.84
2022-09-21T10:05:45.669Z,100409.47
2022-09-21T10:08:36.806Z,100407.16
2022-09-21T10:11:04.403Z,100404.06
2022-09-21T10:13:34.362Z,100408.25
2022-09-21T10:16:05.375Z,100408.78
2022-09-21T10:18:34.902Z,100398.81
2022-09-21T10:21:08.950Z,100407.88
2022-09-21T10:23:37.229Z,100408.75
2022-09-21T10:26:13.701Z,100404.78
2022-09-21T10:29:00.682Z,100393.09
2022-09-21T10:31:29.987Z,100398.72
2022-09-21T10:34:02.693Z,100395.09
2022-09-21T10:36:35.508Z,100391.69
2022-09-21T10:39:21.876Z,100396.06
2022-09-21T10:41:52.205Z,100401.59
2022-09-21T10:44:21.501Z,100393.28
2022-09-21T10:46:50.583Z,100400.19
2022-09-21T10:49:23.457Z,100392.19
2022-09-21T10:51:50.992Z,100392.56
2022-09-21T10:54:23.251Z,100389.69
2022-09-21T10:56:56.061Z,100405.16
2022-09-21T10:59:24.498Z,100397.66
2022-09-21T11:01:53.966Z,100399.16
2022-09-21T11:04:20.788Z,100389.84
2022-09-21T11:06:55.105Z,100395.41
2022-09-21T11:09:33.993Z,100393.00
2022-09-21T11:12:25.102Z,100381.97
2022-09-21T11:15:13.900Z,100379.00
2022-09-21T11:17:47.353Z,100385.13
2022-09-21T11:20:29.037Z,100388.63
2022-09-21T11:23:28.073Z,100384.59
2022-09-21T11:26:00.802Z,100377.62
2022-09-21T11:29:06.956Z,100376.28
2022-09-21T11:32:05.909Z,100376.94
2022-09-21T11:34:48.263Z,100373.91
2022-09-21T11:37:26.666Z,100370.94
2022-09-21T11:40:10.999Z,100372.13
2022-09-21T11:46:13.805Z,100354.69
2022-09-21T11:48:52.251Z,100360.97
2022-09-21T11:52:03.469Z,100364.50
2022-09-21T11:54:46.916Z,100347.84
2022-09-21T11:57:31.137Z,100345.25
2022-09-21T12:00:17.715Z,100345.13
2022-09-21T12:03:27.094Z,100345.25
2022-09-21T12:06:12.012Z,100336.16
2022-09-21T12:09:15.908Z,100334.84
2022-09-21T12:11:49.489Z,100325.53
2022-09-21T12:14:42.683Z,100329.56
2022-09-21T12:21:11.894Z,100320.00
2022-09-21T12:23:53.711Z,100329.06
2022-09-21T12:26:27.272Z,100338.78
2022-09-21T12:29:01.038Z,100326.56
2022-09-21T12:31:39.868Z,100327.50
2022-09-21T12:34:19.871Z,100327.25
2022-09-21T12:37:25.512Z,100323.03
2022-09-21T12:40:02.796Z,100316.81
2022-09-21T12:42:42.083Z,100316.13
2022-09-21T12:45:17.645Z,100320.88
2022-09-21T12:47:52.460Z,100313.81
2022-09-21T12:50:48.547Z,100323.91
2022-09-21T12:53:19.724Z,100314.31
2022-09-21T12:56:13.323Z,100315.97
2022-09-21T12:58:50.745Z,100316.44
2022-09-21T13:01:32.725Z,100321.47
2022-09-21T13:03:59.347Z,100327.47
2022-09-21T13:06:29.374Z,100314.78
2022-09-21T13:08:57.347Z,100310.09
2022-09-21T13:11:24.327Z,100311.97
2022-09-21T13:13:58.467Z,100314.13
2022-09-21T13:16:31.489Z,100312.69
2022-09-21T13:19:25.444Z,100305.84
2022-09-21T13:22:21.126Z,100311.06
2022-09-21T13:25:03.378Z,100306.03
2022-09-21T13:28:03.868Z,100295.63
2022-09-21T13:30:32.021Z,100309.13
2022-09-21T13:32:58.949Z,100311.69
2022-09-21T13:35:52.907Z,100302.47
2022-09-21T13:38:34.475Z,100308.66
2022-09-21T13:41:03.899Z,100301.47
2022-09-21T13:44:06.095Z,100307.84
2022-09-21T13:46:36.005Z,100300.53
2022-09-21T13:49:26.931Z,100304.41
2022-09-21T13:52:15.724Z,100287.84
2022-09-21T13:54:45.228Z,100290.75
2022-09-21T13:57:34.793Z,100301.97
2022-09-21T14:00:13.625Z,100303.28
2022-09-21T14:02:49.542Z,100301.97
2022-09-21T14:05:28.364Z,100307.50
2022-09-21T14:08:01.523Z,100307.81
2022-09-21T14:10:32.094Z,100309.75
2022-09-21T14:13:01.183Z,100298.22
2022-09-21T14:15:39.695Z,100301.66
2022-09-21T14:18:16.295Z,100304.72
2022-09-21T14:21:21.987Z,100296.75
2022-09-21T14:24:07.737Z,100300.84
2022-09-21T14:26:40.695Z,100302.28
2022-09-21T14:29:29.635Z,100302.59
2022-09-21T14:32:04.415Z,100303.75
2022-09-21T14:34:36.962Z,100300.69
2022-09-21T14:37:20.234Z,100306.69
2022-09-21T14:39:49.042Z,100301.00
2022-09-21T14:42:20.143Z,100305.06
2022-09-21T14:44:51.387Z,100311.22
2022-09-21T14:47:17.998Z,100298.69
2022-09-21T14:50:05.545Z,100302.41
2022-09-21T14:52:33.088Z,100295.06
2022-09-21T14:55:35.312Z,100292.19
2022-09-21T14:58:24.883Z,100295.94
2022-09-21T15:00:53.321Z,100291.50
2022-09-21T15:03:28.773Z,100288.94
2022-09-21T15:06:24.199Z,100289.78
2022-09-21T15:09:21.747Z,100294.94
2022-09-21T15:11:59.333Z,100293.97
2022-09-21T15:14:37.122Z,100291.03
2022-09-21T15:17:24.258Z,100290.25
2022-09-21T15:19:51.354Z,100297.41
2022-09-21T15:22:21.013Z,100288.16
2022-09-21T15:24:59.433Z,100297.25
2022-09-21T15:27:33.748Z,100285.22
2022-09-21T15:30:04.465Z,100296.94
2022-09-21T15:32:31.238Z,100291.53
2022-09-21T15:35:01.459Z,100294.69
2022-09-21T15:37:29.549Z,100294.41
2022-09-21T15:40:01.902Z,100301.44
2022-09-21T15:42:30.098Z,100297.41
2022-09-21T15:45:15.380Z,100295.41
2022-09-21T15:47:45.033Z,100307.87
2022-09-21T15:50:13.311Z,100305.47
2022-09-21T15:52:45.749Z,100305.47
2022-09-21T15:55:21.917Z,100309.50
2022-09-21T15:57:56.322Z,100310.22
2022-09-21T16:00:31.885Z,100306.38
2022-09-21T16:03:06.156Z,100314.44
2022-09-21T16:05:47.543Z,100316.62
2022-09-21T16:08:28.402Z,100317.59
2022-09-21T16:11:11.010Z,100325.97
2022-09-21T16:13:56.445Z,100323.38
2022-09-21T16:16:23.075Z,100317.59
2022-09-21T16:18:55.368Z,100323.44
2022-09-21T16:21:29.286Z,100333.75
2022-09-21T16:23:58.438Z,100325.78
2022-09-21T16:26:35.133Z,100327.84
2022-09-21T16:29:43.080Z,100339.69
2022-09-21T16:32:18.973Z,100328.53
2022-09-21T16:34:46.355Z,100337.91
2022-09-21T16:37:24.559Z,100334.09
2022-09-21T16:39:52.978Z,100333.50
2022-09-21T16:42:21.046Z,100335.84
2022-09-21T16:44:48.499Z,100335.75
2022-09-21T16:47:22.773Z,100343.53
2022-09-21T16:49:49.317Z,100332.78
2022-09-21T16:52:17.005Z,100342.00
2022-09-21T16:54:43.608Z,100338.41
2022-09-21T16:57:12.489Z,100336.00
2022-09-21T16:59:39.041Z,100348.97
2022-09-21T17:02:05.987Z,100343.72
2022-09-21T17:04:34.994Z,100349.25
2022-09-21T17:07:04.982Z,100349.03
2022-09-21T17:09:38.483Z,100349.25
2022-09-21T17:12:07.797Z,100366.00
2022-09-21T17:14:36.248Z,100358.78
2022-09-21T17:17:13.332Z,100361.63
2022-09-21T17:19:42.189Z,100365.31
2022-09-21T17:22:17.614Z,100368.00
2022-09-21T17:24:51.821Z,100373.19
2022-09-21T17:27:29.331Z,100371.53
2022-09-21T17:29:56.494Z,100378.16
2022-09-21T17:32:24.782Z,100376.16
2022-09-21T17:35:11.766Z,100373.41
2022-09-21T17:37:38.337Z,100376.78
2022-09-21T17:40:10.510Z,100374.25
2022-09-21T17:42:41.532Z,100379.09
2022-09-21T17:45:29.476Z,100392.87
2022-09-21T17:47:56.388Z,100394.44
2022-09-21T17:50:27.002Z,100391.94
2022-09-21T17:53:14.260Z,100392.06
2022-09-21T17:55:48.400Z,100386.34
2022-09-21T17:58:57.010Z,100392.63
2022-09-21T18:01:37.041Z,100399.06
2022-09-21T18:04:04.664Z,100402.44
2022-09-21T18:06:31.726Z,100405.91
2022-09-21T18:08:58.707Z,100411.00
2022-09-21T18:11:34.261Z,100400.47
2022-09-21T18:14:19.116Z,100404.06
2022-09-21T18:17:11.181Z,100410.19
2022-09-21T18:20:11.997Z,100409.28
2022-09-21T18:23:06.672Z,100413.34
2022-09-21T18:25:36.247Z,100411.00
2022-09-21T18:28:12.795Z,100416.37
2022-09-21T18:30:45.619Z,100421.91
2022-09-21T18:33:53.770Z,100426.47
2022-09-21T18:36:36.966Z,100409.56
2022-09-21T18:39:22.316Z,100420.78
2022-09-21T18:42:13.568Z,100414.59
2022-09-21T18:48:13.264Z,100417.75
2022-09-21T18:51:06.099Z,100419.38
2022-09-21T18:56:08.488Z,100422.12
2022-09-21T18:58:36.016Z,100422.19
2022-09-21T19:01:04.104Z,100429.06
2022-09-21T19:03:31.495Z,100425.12
2022-09-21T19:06:01.047Z,100422.03
2022-09-21T19:08:43.509Z,100424.81
2022-09-21T19:11:52.078Z,100429.59
2022-09-21T19:14:43.923Z,100424.53
2022-09-21T19:17:13.527Z,100417.84
2022-09-21T19:20:10.212Z,100428.62
2022-09-21T19:23:07.448Z,100424.38
2022-09-21T19:25:48.698Z,100424.91
2022-09-21T19:28:53.446Z,100418.97
2022-09-21T19:31:20.482Z,100426.72
2022-09-21T19:33:50.743Z,100432.97
2022-09-21T19:36:18.937Z,100423.53
2022-09-21T19:38:45.730Z,100415.56
2022-09-21T19:42:07.502Z,100423.16
2022-09-21T19:44:34.570Z,100429.63
2022-09-21T19:47:29.291Z,100427.22
2022-09-21T19:50:04.512Z,100423.09
2022-09-21T19:52:36.249Z,100432.47
2022-09-21T19:55:22.604Z,100423.22
2022-09-21T19:58:08.348Z,100410.00
2022-09-21T20:00:36.405Z,100414.06
2022-09-21T20:03:14.126Z,100408.53
2022-09-21T20:05:54.920Z,100409.13
2022-09-21T20:08:28.508Z,100410.75
2022-09-21T20:11:13.656Z,100408.81
2022-09-21T20:14:12.292Z,100411.56
2022-09-21T20:16:59.297Z,100409.87
2022-09-21T20:19:32.015Z,100420.09
2022-09-21T20:22:04.989Z,100425.59
2022-09-21T20:24:34.458Z,100422.03
2022-09-21T20:27:03.101Z,100432.12
2022-09-21T20:29:29.637Z,100426.78
2022-09-21T20:31:56.321Z,100429.63
2022-09-21T20:34:22.918Z,100432.66
2022-09-21T20:36:49.485Z,100424.44
2022-09-21T20:39:16.249Z,100421.94
2022-09-21T20:41:42.872Z,100432.81
2022-09-21T20:44:22.057Z,100424.22
2022-09-21T20:46:48.583Z,100424.72
2022-09-21T20:49:16.096Z,100434.84
2022-09-21T20:51:42.867Z,100430.63
2022-09-21T20:54:09.466Z,100431.75
2022-09-21T20:56:35.994Z,100426.03
2022-09-21T20:59:13.227Z,100423.59
2022-09-21T21:02:04.467Z,100417.25
2022-09-21T21:04:32.465Z,100413.84
2022-09-21T21:06:59.477Z,100415.72
2022-09-21T21:09:26.520Z,100418.62
2022-09-21T21:11:53.074Z,100412.12
2022-09-21T21:14:19.653Z,100415.22
2022-09-21T21:19:27.281Z,100410.47
2022-09-21T21:21:53.817Z,100409.59
2022-09-21T21:24:39.010Z,100417.16
2022-09-21T21:27:06.343Z,100418.62
2022-09-21T21:29:33.192Z,100414.69
2022-09-21T21:32:00.607Z,100408.16
2022-09-21T21:35:14.446Z,100410.37
2022-09-21T21:37:50.151Z,100410.56
2022-09-21T21:40:17.062Z,100409.81
2022-09-21T21:42:43.696Z,100418.38
2022-09-21T21:45:10.954Z,100419.34
2022-09-21T21:47:40.617Z,100411.28
2022-09-21T21:50:08.521Z,100418.66
2022-09-21T21:52:35.068Z,100412.34
2022-09-21T21:55:02.413Z,100406.91
2022-09-21T21:57:29.136Z,100410.09
2022-09-21T21:59:55.710Z,100411.59
2022-09-21T22:02:22.389Z,100405.22
2022-09-21T22:04:49.042Z,100415.72
2022-09-21T22:07:33.864Z,100411.75
2022-09-21T22:10:00.453Z,100413.56
2022-09-21T22:12:27.019Z,100411.31
2022-09-21T22:14:53.589Z,100412.06
2022-09-21T22:17:20.467Z,100412.69
2022-09-21T22:19:47.109Z,100409.63
2022-09-21T22:22:32.045Z,100412.88
2022-09-21T22:25:48.224Z,100393.34
2022-09-21T22:28:23.905Z,100398.25
2022-09-21T22:30:50.673Z,100394.31
2022-09-21T22:33:17.829Z,100403.88
2022-09-21T22:35:44.388Z,100396.22
2022-09-21T22:38:11.943Z,100400.13
2022-09-21T22:40:38.621Z,100396.41
2022-09-21T22:43:05.176Z,100394.72
2022-09-21T22:45:31.991Z,100389.53
2022-09-21T22:47:58.604Z,100387.00
2022-09-21T22:50:25.156Z,100385.78
2022-09-21T22:52:51.700Z,100391.09
2022-09-21T22:55:18.293Z,100382.00
2022-09-21T22:57:53.811Z,100376.25
2022-09-21T23:00:20.348Z,100375.34
2022-09-21T23:02:52.843Z,100371.22
2022-09-21T23:05:19.391Z,100368.16
2022-09-21T23:07:50.730Z,100368.91
2022-09-21T23:10:17.749Z,100376.78
2022-09-21T23:13:31.372Z,100374.59
2022-09-21T23:16:20.201Z,100366.94
2022-09-21T23:18:48.514Z,100372.09
2022-09-21T23:21:18.231Z,100369.63
2022-09-21T23:23:45.232Z,100371.78
2022-09-21T23:26:13.372Z,100370.28
2022-09-21T23:28:41.994Z,100373.25
2022-09-21T23:31:29.495Z,100362.50
2022-09-21T23:33:59.262Z,100368.75
2022-09-21T23:36:30.837Z,100369.94
2022-09-21T23:38:58.004Z,100373.25
2022-09-21T23:41:30.822Z,100370.44
2022-09-21T23:43:58.312Z,100367.19
2022-09-21T23:47:02.034Z,100374.59
2022-09-21T23:52:32.075Z,100371.88
2022-09-21T23:54:58.645Z,100383.41
2022-09-21T23:57:25.189Z,100382.03
2022-09-21T23:59:52.824Z,100377.97
